nws-alerts: Checking more than four warning/county codes can delay the loading of your pages. You should use a cron job to get the data.
EllijayWeather Station Historical Data
Daily Summary for December 23, 2018 Units:  English    Metric   Both
Daily Weekly Monthly Yearly Custom
  High: Low: Average:
Temperature: 48.9 °F 0.00 °F 32.7 °F
Dew Point: 48.7 °F 0.00 °F 31.9 °F
Humidity: 100% % 83%
Wind Speed: 4mph 0mph 0.1mph
Wind Gust: 6mph - -
Wind- - WSW
Pressure: 30.31 in 30.16 in -
Precipitation: 0.19 in    
Historical Graphs
 
 
Tabular Data for December 23, 2018
Time Temperature Dew Point Pressure Wind Wind Speed Wind Gust Humidity Rainfall Rate (Hourly) solar
00:04 28.9 °F 27.5 °F 30.25 in Calm     94% 0 in meteobridge W/m2
00:09 28.9 °F 27.5 °F 30.25 in Calm     94% 0 in meteobridge W/m2
00:14 28.9 °F 27.5 °F 30.25 in Calm     94% 0 in meteobridge W/m2
00:19 28.9 °F 27.5 °F 30.25 in Calm     94% 0 in meteobridge W/m2
00:24 28.9 °F 27.5 °F 30.25 in Calm     94% 0 in meteobridge W/m2
00:29 28.9 °F 27.5 °F 30.24 in Calm     94% 0 in meteobridge W/m2
00:34 28.9 °F 27.5 °F 30.24 in Calm     94% 0 in meteobridge W/m2
00:39 28.9 °F 27.5 °F 30.25 in Calm     94% 0 in meteobridge W/m2
00:44 28.9 °F 27.5 °F 30.25 in Calm     94% 0 in meteobridge W/m2
00:49 29.1 °F 27.7 °F 30.25 in Calm     94% 0 in meteobridge W/m2
00:54 29.1 °F 27.7 °F 30.25 in Calm     94% 0 in meteobridge W/m2
00:59 29.1 °F 27.7 °F 30.25 in Calm     94% 0 in meteobridge W/m2
01:04 29.1 °F 27.7 °F 30.25 in Calm     94% 0 in meteobridge W/m2
01:09 28.9 °F 27.5 °F 30.24 in Calm     94% 0 in meteobridge W/m2
01:14 28.9 °F 27.5 °F 30.24 in Calm     94% 0 in meteobridge W/m2
01:19 28.9 °F 27.5 °F 30.25 in Calm     94% 0 in meteobridge W/m2
01:24 28.8 °F 27.3 °F 30.25 in Calm     94% 0 in meteobridge W/m2
01:29 28.8 °F 27.3 °F 30.26 in Calm     94% 0 in meteobridge W/m2
01:34 28.8 °F 27.3 °F 30.26 in Calm     94% 0 in meteobridge W/m2
01:39 28.8 °F 27.3 °F 30.26 in Calm     94% 0 in meteobridge W/m2
01:44 28.6 °F 27.1 °F 30.26 in Calm     94% 0 in meteobridge W/m2
01:48 28.6 °F 27.1 °F 30.27 in Calm     94% 0 in meteobridge W/m2
01:54 28.6 °F 27.1 °F 30.27 in Calm     94% 0 in meteobridge W/m2
01:59 28.4 °F 27 °F 30.27 in Calm     94% 0 in meteobridge W/m2
02:04 28.4 °F 27 °F 30.27 in Calm     94% 0 in meteobridge W/m2
02:09 28.4 °F 27 °F 30.27 in Calm     94% 0 in meteobridge W/m2
02:14 28.2 °F 26.8 °F 30.28 in Calm     94% 0 in meteobridge W/m2
02:19 28.2 °F 26.8 °F 30.28 in Calm     94% 0 in meteobridge W/m2
02:23 28.2 °F 26.8 °F 30.28 in Calm     94% 0 in meteobridge W/m2
02:29 28.2 °F 26.8 °F 30.28 in Calm     94% 0 in meteobridge W/m2
02:34 28 °F 26.6 °F 30.28 in Calm     94% 0 in meteobridge W/m2
02:39 28 °F 26.6 °F 30.28 in Calm     94% 0 in meteobridge W/m2
02:44 27.9 °F 26.4 °F 30.28 in Calm     94% 0 in meteobridge W/m2
02:49 27.9 °F 26.1 °F 30.29 in Calm     93% 0 in meteobridge W/m2
02:54 27.9 °F 26.4 °F 30.29 in Calm     94% 0 in meteobridge W/m2
02:59 27.9 °F 26.4 °F 30.29 in Calm     94% 0 in meteobridge W/m2
03:04 27.7 °F 26.2 °F 30.29 in Calm     94% 0 in meteobridge W/m2
03:09 27.9 °F 26.4 °F 30.29 in Calm     94% 0 in meteobridge W/m2
03:14 27.7 °F 26.2 °F 30.29 in Calm     94% 0 in meteobridge W/m2
03:19 27.9 °F 26.4 °F 30.29 in Calm     94% 0 in meteobridge W/m2
03:24 27.7 °F 26.2 °F 30.29 in Calm     94% 0 in meteobridge W/m2
03:29 27.9 °F 26.6 °F 30.29 in Calm     95% 0 in meteobridge W/m2
03:34 27.9 °F 26.6 °F 30.29 in Calm     95% 0 in meteobridge W/m2
03:39 27.9 °F 26.6 °F 30.29 in Calm     95% 0 in meteobridge W/m2
03:44 27.9 °F 26.6 °F 30.29 in Calm     95% 0 in meteobridge W/m2
03:49 27.9 °F 26.6 °F 30.29 in Calm     95% 0 in meteobridge W/m2
03:54 27.9 °F 26.6 °F 30.29 in Calm     95% 0 in meteobridge W/m2
03:59 27.9 °F 26.4 °F 30.29 in Calm     94% 0 in meteobridge W/m2
04:04 28 °F 26.6 °F 30.29 in Calm     94% 0 in meteobridge W/m2
04:09 27.9 °F 26.4 °F 30.29 in Calm     94% 0 in meteobridge W/m2
04:14 27.9 °F 26.4 °F 30.29 in Calm     94% 0 in meteobridge W/m2
04:19 27.9 °F 26.4 °F 30.29 in Calm     94% 0 in meteobridge W/m2
04:24 27.9 °F 26.4 °F 30.29 in Calm     94% 0 in meteobridge W/m2
04:29 27.9 °F 26.4 °F 30.29 in Calm     94% 0 in meteobridge W/m2
04:34 27.9 °F 26.4 °F 30.29 in Calm   -999 mph 94% 0 in meteobridge W/m2
04:38 27.9 °F 26.4 °F 30.29 in Calm   -999 mph 94% 0 in meteobridge W/m2
04:43 27.9 °F 26.4 °F 30.29 in Calm   -999 mph 94% 0 in meteobridge W/m2
04:49 0.00 °F 0.00 °F 30.29 in Calm   -999 mph % 0 in meteobridge W/m2
04:54 0.00 °F 0.00 °F 30.28 in Calm   -999 mph % 0 in meteobridge W/m2
04:59 0.00 °F 0.00 °F 30.28 in Calm   -999 mph % 0 in meteobridge W/m2
05:03 0.00 °F 0.00 °F 30.28 in Calm   -999 mph % 0 in meteobridge W/m2
05:09 0.00 °F 0.00 °F 30.28 in Calm   -999 mph % 0 in meteobridge W/m2
05:14 0.00 °F 0.00 °F 30.28 in Calm   -999 mph % 0 in meteobridge W/m2
05:19 0.00 °F 0.00 °F 30.27 in Calm   -999 mph % 0 in meteobridge W/m2
05:24 0.00 °F 0.00 °F 30.27 in Calm   -999 mph % 0 in meteobridge W/m2
05:28 0.00 °F 0.00 °F 30.27 in Calm   -999 mph % 0 in meteobridge W/m2
05:33 0.00 °F 0.00 °F 30.27 in Calm   -999 mph % 0.00 in meteobridge W/m2
05:39 0.00 °F 0.00 °F 30.27 in Calm   -999 mph % 0.00 in meteobridge W/m2
05:44 0.00 °F 0.00 °F 30.27 in Calm   -999 mph % 0.00 in meteobridge W/m2
05:48 0.00 °F 0.00 °F 30.27 in Calm   -999 mph % 0.00 in meteobridge W/m2
05:54 0.00 °F 0.00 °F 30.27 in Calm   -999 mph % 0.00 in meteobridge W/m2
05:59 0.00 °F 0.00 °F 30.27 in Calm   -999 mph % 0.00 in meteobridge W/m2
06:04 0.00 °F 0.00 °F 30.27 in Calm   -999 mph % 0.00 in meteobridge W/m2
06:08 0.00 °F 0.00 °F 30.27 in Calm   -999 mph % 0.00 in meteobridge W/m2
06:14 0.00 °F 0.00 °F 30.27 in Calm   -999 mph % 0.00 in meteobridge W/m2
06:18 0.00 °F 0.00 °F 30.27 in Calm   -999 mph % 0.00 in meteobridge W/m2
06:23 0.00 °F 0.00 °F 30.27 in Calm   -999 mph % 0.00 in meteobridge W/m2
06:29 0.00 °F 0.00 °F 30.27 in Calm   -999 mph % 0.00 in meteobridge W/m2
06:34 0.00 °F 0.00 °F 30.27 in Calm   -999 mph % 0.00 in meteobridge W/m2
06:39 0.00 °F 0.00 °F 30.27 in Calm   -999 mph % 0.00 in meteobridge W/m2
06:43 0.00 °F 0.00 °F 30.26 in Calm   -999 mph % 0.00 in meteobridge W/m2
06:49 0.00 °F 0.00 °F 30.27 in Calm   -999 mph % 0.00 in meteobridge W/m2
06:53 0.00 °F 0.00 °F 30.27 in Calm   -999 mph % 0.00 in meteobridge W/m2
06:58 0.00 °F 0.00 °F 30.27 in Calm   -999 mph % 0.00 in meteobridge W/m2
07:03 0.00 °F 0.00 °F 30.27 in Calm   -999 mph % 0.00 in meteobridge W/m2
07:09 0.00 °F 0.00 °F 30.27 in Calm   -999 mph % 0.00 in meteobridge W/m2
07:13 0.00 °F 0.00 °F 30.27 in Calm   -999 mph % 0.00 in meteobridge W/m2
07:18 0.00 °F 0.00 °F 30.26 in Calm   -999 mph % 0.00 in meteobridge W/m2
07:24 0.00 °F 0.00 °F 30.26 in Calm   -999 mph % 0.00 in meteobridge W/m2
07:28 0.00 °F 0.00 °F 30.26 in Calm   -999 mph % 0.00 in meteobridge W/m2
07:34 0.00 °F 0.00 °F 30.26 in Calm   -999 mph % 0.00 in meteobridge W/m2
07:39 0.00 °F 0.00 °F 30.26 in Calm   -999 mph % 0.00 in meteobridge W/m2
07:44 0.00 °F 0.00 °F 30.26 in Calm   -999 mph % 0.00 in meteobridge W/m2
07:49 0.00 °F 0.00 °F 30.26 in Calm   -999 mph % 0.00 in meteobridge W/m2
07:54 0.00 °F 0.00 °F 30.25 in Calm   -999 mph % 0.00 in meteobridge W/m2
07:59 0.00 °F 0.00 °F 30.25 in Calm   -999 mph % 0.00 in meteobridge W/m2
08:04 0.00 °F 0.00 °F 30.26 in Calm   -999 mph % 0.00 in meteobridge W/m2
08:09 0.00 °F 0.00 °F 30.26 in Calm   -999 mph % 0.00 in meteobridge W/m2
08:14 30.7 °F 29.7 °F 30.26 in Calm   -999 mph 96% 0.00 in meteobridge W/m2
08:19 30.7 °F 29.7 °F 30.26 in Calm     96% 0 in meteobridge W/m2
08:24 30.9 °F 29.8 °F 30.26 in Calm     96% 0 in meteobridge W/m2
08:29 31.3 °F 30.2 °F 30.26 in Calm     96% 0 in meteobridge W/m2
08:34 31.3 °F 30.2 °F 30.26 in Calm     96% 0 in meteobridge W/m2
08:39 31.6 °F 30.6 °F 30.25 in Calm     96% 0 in meteobridge W/m2
08:44 31.6 °F 30.6 °F 30.25 in Calm     96% 0 in meteobridge W/m2
08:49 31.8 °F 30.7 °F 30.26 in Calm     96% 0 in meteobridge W/m2
08:54 32 °F 31.3 °F 30.26 in Calm     97% 0 in meteobridge W/m2
08:59 32.4 °F 31.3 °F 30.26 in Calm     96% 0 in meteobridge W/m2
09:04 32.4 °F 31.3 °F 30.26 in Calm     96% 0 in meteobridge W/m2
09:09 32.5 °F 31.5 °F 30.26 in Calm     96% 0 in meteobridge W/m2
09:14 32.7 °F 31.6 °F 30.26 in Calm     96% 0 in meteobridge W/m2
09:19 32.9 °F 31.8 °F 30.26 in Calm     96% 0 in meteobridge W/m2
09:24 33.1 °F 32 °F 30.27 in Calm     96% 0 in meteobridge W/m2
09:29 33.1 °F 32 °F 30.26 in Calm     96% 0 in meteobridge W/m2
09:34 33.1 °F 32 °F 30.26 in Calm     96% 0 in meteobridge W/m2
09:39 33.3 °F 32.2 °F 30.26 in Calm     96% 0 in meteobridge W/m2
09:44 33.3 °F 32.2 °F 30.26 in Calm     96% 0 in meteobridge W/m2
09:49 33.3 °F 32.2 °F 30.26 in Calm     96% 0 in meteobridge W/m2
09:54 33.4 °F 32.4 °F 30.26 in Calm     96% 0 in meteobridge W/m2
09:59 33.4 °F 32.4 °F 30.26 in Calm     96% 0.01 in meteobridge W/m2
10:04 33.6 °F 32.5 °F 30.26 in Calm     96% 0.01 in meteobridge W/m2
10:09 33.6 °F 32.5 °F 30.26 in Calm     96% 0.01 in meteobridge W/m2
10:14 33.8 °F 33.1 °F 30.26 in Calm     97% 0.02 in meteobridge W/m2
10:19 34 °F 32.9 °F 30.26 in Calm     96% 0.02 in meteobridge W/m2
10:24 34.2 °F 33.4 °F 30.26 in Calm     97% 0.02 in meteobridge W/m2
10:29 34.2 °F 33.4 °F 30.25 in Calm     97% 0.02 in meteobridge W/m2
10:34 34.3 °F 33.6 °F 30.24 in Calm     97% 0.03 in meteobridge W/m2
10:39 34.5 °F 33.8 °F 30.25 in Calm     97% 0.03 in meteobridge W/m2
10:44 34.9 °F 34.2 °F 30.25 in Calm     97% 0.04 in meteobridge W/m2
10:49 34.9 °F 34.2 °F 30.24 in Calm     97% 0.05 in meteobridge W/m2
10:54 35.1 °F 34.3 °F 30.24 in Calm     97% 0.05 in meteobridge W/m2
10:59 35.2 °F 34.5 °F 30.24 in Calm     97% 0.05 in meteobridge W/m2
11:04 35.4 °F 34.7 °F 30.24 in Calm     97% 0.06 in meteobridge W/m2
11:09 35.6 °F 34.9 °F 30.23 in Calm     97% 0.08 in meteobridge W/m2
11:14 35.6 °F 34.9 °F 30.23 in Calm     97% 0.09 in meteobridge W/m2
11:19 35.8 °F 35.1 °F 30.23 in Calm     97% 0.1 in meteobridge W/m2
11:24 36 °F 35.2 °F 30.22 in Calm     97% 0.1 in meteobridge W/m2
11:29 36 °F 35.2 °F 30.22 in Calm     97% 0.1 in meteobridge W/m2
11:34 36.1 °F 35.4 °F 30.22 in Calm     97% 0.09 in meteobridge W/m2
11:39 36.3 °F 35.6 °F 30.22 in Calm     97% 0.1 in meteobridge W/m2
11:44 36.5 °F 35.8 °F 30.22 in Calm     97% 0.09 in meteobridge W/m2
11:49 36.7 °F 36.1 °F 30.22 in Calm     98% 0.08 in meteobridge W/m2
11:54 36.7 °F 36.1 °F 30.21 in Calm     98% 0.09 in meteobridge W/m2
11:59 36.7 °F 36.1 °F 30.21 in Calm     98% 0.09 in meteobridge W/m2
12:04 36.9 °F 36.1 °F 30.20 in Calm     97% 0.08 in meteobridge W/m2
12:09 36.9 °F 36.1 °F 30.20 in Calm     97% 0.06 in meteobridge W/m2
12:14 37 °F 36.3 °F 30.20 in Calm   2 mph 97% 0.04 in meteobridge W/m2
12:19 37 °F 36.3 °F 30.20 in Calm     97% 0.03 in meteobridge W/m2
12:24 37 °F 36.3 °F 30.19 in Calm   1 mph 97% 0.03 in meteobridge W/m2
12:29 37 °F 36.3 °F 30.19 in Calm     97% 0.03 in meteobridge W/m2
12:34 37 °F 36.3 °F 30.19 in Calm     97% 0.03 in meteobridge W/m2
12:39 37.2 °F 36.5 °F 30.19 in Calm     97% 0.02 in meteobridge W/m2
12:44 37.2 °F 36.5 °F 30.18 in Calm     97% 0.02 in meteobridge W/m2
12:49 37.6 °F 36.9 °F 30.18 in Calm     97% 0.02 in meteobridge W/m2
12:54 37.6 °F 36.9 °F 30.18 in Calm     97% 0.02 in meteobridge W/m2
12:59 37.6 °F 36.9 °F 30.18 in Calm     97% 0.01 in meteobridge W/m2
13:04 37.8 °F 37 °F 30.18 in Calm     97% 0 in meteobridge W/m2
13:09 37.8 °F 37.2 °F 30.17 in Calm     98% 0 in meteobridge W/m2
13:14 37.8 °F 37.2 °F 30.17 in Calm     98% 0.01 in meteobridge W/m2
13:19 37.9 °F 37.4 °F 30.17 in Calm     98% 0.01 in meteobridge W/m2
13:24 37.9 °F 37.4 °F 30.17 in Calm     98% 0.01 in meteobridge W/m2
13:29 38.1 °F 37.4 °F 30.17 in Calm     97% 0.01 in meteobridge W/m2
13:34 38.3 °F 37.6 °F 30.17 in Calm     97% 0.01 in meteobridge W/m2
13:39 38.3 °F 37.6 °F 30.17 in Calm     97% 0.01 in meteobridge W/m2
13:44 38.5 °F 37.9 °F 30.17 in Calm     98% 0.01 in meteobridge W/m2
13:49 38.7 °F 38.1 °F 30.16 in Calm     98% 0.01 in meteobridge W/m2
13:54 38.7 °F 38.1 °F 30.16 in Calm     98% 0.01 in meteobridge W/m2
13:59 38.8 °F 38.3 °F 30.16 in Calm     98% 0.01 in meteobridge W/m2
14:04 38.8 °F 38.3 °F 30.16 in Calm     98% 0.01 in meteobridge W/m2
14:09 39 °F 38.5 °F 30.16 in Calm     98% 0.01 in meteobridge W/m2
14:14 39.2 °F 38.7 °F 30.16 in Calm     98% 0 in meteobridge W/m2
14:19 39.4 °F 38.8 °F 30.16 in Calm     98% 0 in meteobridge W/m2
14:24 39.6 °F 39 °F 30.16 in Calm     98% 0 in meteobridge W/m2
14:29 39.6 °F 39 °F 30.16 in Calm     98% 0 in meteobridge W/m2
14:34 39.6 °F 39 °F 30.16 in Calm     98% 0 in meteobridge W/m2
14:39 39.7 °F 39.2 °F 30.16 in Calm     98% 0 in meteobridge W/m2
14:44 39.7 °F 39.2 °F 30.16 in Calm     98% 0 in meteobridge W/m2
14:49 39.9 °F 39.4 °F 30.16 in Calm     98% 0 in meteobridge W/m2
14:54 39.9 °F 39.4 °F 30.16 in Calm     98% 0 in meteobridge W/m2
14:59 39.9 °F 39.4 °F 30.16 in Calm     98% 0 in meteobridge W/m2
15:04 40.1 °F 39.6 °F 30.16 in Calm     98% 0 in meteobridge W/m2
15:09 40.3 °F 39.7 °F 30.16 in Calm     98% 0 in meteobridge W/m2
15:14 40.5 °F 39.9 °F 30.16 in Calm     98% 0 in meteobridge W/m2
15:19 40.6 °F 40.1 °F 30.16 in Calm     98% 0 in meteobridge W/m2
15:24 40.6 °F 40.1 °F 30.17 in Calm     98% 0 in meteobridge W/m2
15:29 40.8 °F 40.3 °F 30.17 in Calm     98% 0 in meteobridge W/m2
15:34 41 °F 40.5 °F 30.17 in Calm     98% 0.01 in meteobridge W/m2
15:39 41.2 °F 40.6 °F 30.17 in Calm     98% 0.01 in meteobridge W/m2
15:44 41.4 °F 40.8 °F 30.18 in Calm     98% 0.01 in meteobridge W/m2
15:49 41.7 °F 41.2 °F 30.18 in Calm   2 mph 98% 0.01 in meteobridge W/m2
15:54 42.6 °F 42.1 °F 30.18 in Calm   1 mph 98% 0.01 in meteobridge W/m2
15:59 43.3 °F 43.2 °F 30.18 in Calm     99% 0.02 in meteobridge W/m2
16:04 44.4 °F 43.9 °F 30.19 in Calm     98% 0.02 in meteobridge W/m2
16:09 45.3 °F 45.1 °F 30.19 in Calm   2 mph 99% 0.02 in meteobridge W/m2
16:14 46.6 °F 46.4 °F 30.19 in Calm   4 mph 99% 0.02 in meteobridge W/m2
16:19 47.1 °F 46.9 °F 30.19 in Calm   2 mph 99% 0.02 in meteobridge W/m2
16:24 47.5 °F 47.3 °F 30.20 in Calm   2 mph 99% 0.02 in meteobridge W/m2
16:29 47.8 °F 47.7 °F 30.20 in Calm   4 mph 99% 0.02 in meteobridge W/m2
16:34 48.2 °F 48 °F 30.20 in NW 0.9 mph 2 mph 99% 0.01 in meteobridge W/m2
16:39 48.4 °F 48.2 °F 30.20 in Calm   5 mph 99% 0.01 in meteobridge W/m2
16:44 48.6 °F 48.4 °F 30.20 in Calm   1 mph 99% 0.01 in meteobridge W/m2
16:49 48.7 °F 48.6 °F 30.21 in North 2 mph 3 mph 99% 0.01 in meteobridge W/m2
16:54 48.7 °F 48.6 °F 30.21 in Calm     99% 0.01 in meteobridge W/m2
16:59 48.9 °F 48.7 °F 30.21 in Calm   2 mph 99% 0 in meteobridge W/m2
17:03 48.9 °F 48.7 °F 30.21 in Calm   2 mph 99% 0 in meteobridge W/m2
17:09 48.9 °F 48.7 °F 30.22 in WNW 0.9 mph 1 mph 99% 0 in meteobridge W/m2
17:14 48.7 °F 48.6 °F 30.22 in Calm   5 mph 99% 0 in meteobridge W/m2
17:19 48.9 °F 48.7 °F 30.21 in Calm   5 mph 99% 0 in meteobridge W/m2
17:24 48.9 °F 48.7 °F 30.22 in Calm   1 mph 99% 0 in meteobridge W/m2
17:29 48.9 °F 48.7 °F 30.21 in Calm   3 mph 99% 0 in meteobridge W/m2
17:34 48.7 °F 48.6 °F 30.22 in Calm   4 mph 99% 0 in meteobridge W/m2
17:39 48.9 °F 48.7 °F 30.22 in Calm     99% 0 in meteobridge W/m2
17:44 48.9 °F 48.7 °F 30.22 in Calm   2 mph 99% 0 in meteobridge W/m2
17:49 48.7 °F 48.6 °F 30.22 in Calm     99% 0 in meteobridge W/m2
17:54 48.7 °F 48.6 °F 30.22 in Calm     99% 0 in meteobridge W/m2
17:59 48.7 °F 48.6 °F 30.22 in Calm   3 mph 99% 0 in meteobridge W/m2
18:04 48.7 °F 48.6 °F 30.22 in Calm   1 mph 99% 0 in meteobridge W/m2
18:09 48.7 °F 48.6 °F 30.22 in Calm   1 mph 99% 0 in meteobridge W/m2
18:14 48.9 °F 48.7 °F 30.23 in Calm     99% 0 in meteobridge W/m2
18:19 48.9 °F 48.7 °F 30.23 in Calm   1 mph 99% 0 in meteobridge W/m2
18:24 48.9 °F 48.7 °F 30.23 in Calm   1 mph 99% 0 in meteobridge W/m2
18:29 48.9 °F 48.7 °F 30.23 in Calm   3 mph 99% 0 in meteobridge W/m2
18:34 48.9 °F 48.7 °F 30.23 in Calm   4 mph 99% 0 in meteobridge W/m2
18:39 48.9 °F 48.4 °F 30.23 in Calm     98% 0 in meteobridge W/m2
18:44 48.7 °F 48.2 °F 30.23 in Calm   1 mph 98% 0 in meteobridge W/m2
18:49 48.7 °F 48.2 °F 30.24 in Calm   1 mph 98% 0 in meteobridge W/m2
18:54 48.7 °F 48.2 °F 30.24 in Calm     98% 0 in meteobridge W/m2
18:59 48.6 °F 48 °F 30.24 in North 2 mph 2 mph 98% 0 in meteobridge W/m2
19:04 48.6 °F 48 °F 30.24 in WNW 2 mph 5 mph 98% 0 in meteobridge W/m2
19:09 48.6 °F 48 °F 30.24 in Calm   1 mph 98% 0 in meteobridge W/m2
19:14 48.6 °F 47.7 °F 30.24 in Calm     97% 0 in meteobridge W/m2
19:19 48.4 °F 47.5 °F 30.24 in Calm     97% 0 in meteobridge W/m2
19:24 48.2 °F 47.3 °F 30.24 in Calm     97% 0 in meteobridge W/m2
19:29 48 °F 47.1 °F 30.25 in Calm     97% 0 in meteobridge W/m2
19:34 47.8 °F 46.9 °F 30.25 in Calm     97% 0 in meteobridge W/m2
19:39 47.8 °F 46.9 °F 30.25 in Calm     97% 0 in meteobridge W/m2
19:44 47.7 °F 46.9 °F 30.26 in Calm     97% 0 in meteobridge W/m2
19:49 47.5 °F 46.8 °F 30.26 in NW 2 mph 3 mph 97% 0 in meteobridge W/m2
19:54 47.5 °F 46.8 °F 30.26 in Calm     97% 0 in meteobridge W/m2
19:59 47.5 °F 46.4 °F 30.27 in Calm   4 mph 96% 0 in meteobridge W/m2
20:04 47.1 °F 45.7 °F 30.27 in WNW 4 mph 5 mph 95% 0 in meteobridge W/m2
20:09 46.8 °F 45.3 °F 30.27 in Calm   6 mph 95% 0 in meteobridge W/m2
20:14 46.6 °F 45.1 °F 30.27 in Calm     95% 0 in meteobridge W/m2
20:19 46.4 °F 44.8 °F 30.27 in Calm   4 mph 94% 0 in meteobridge W/m2
20:24 46 °F 44.6 °F 30.27 in Calm   1 mph 95% 0 in meteobridge W/m2
20:29 45.9 °F 44.4 °F 30.27 in Calm     95% 0 in meteobridge W/m2
20:34 45.7 °F 44.4 °F 30.27 in Calm   2 mph 95% 0 in meteobridge W/m2
20:39 45.3 °F 44.1 °F 30.27 in Calm     95% 0 in meteobridge W/m2
20:44 45.1 °F 43.9 °F 30.27 in Calm   2 mph 95% 0 in meteobridge W/m2
20:49 45 °F 43.7 °F 30.27 in Calm     95% 0 in meteobridge W/m2
20:54 44.8 °F 43.7 °F 30.28 in Calm     96% 0 in meteobridge W/m2
20:59 44.4 °F 44.4 °F 30.28 in Calm     100% 0 in meteobridge W/m2
21:04 44.4 °F 43.3 °F 30.28 in Calm     96% 0 in meteobridge W/m2
21:09 44.2 °F 43.5 °F 30.28 in Calm     97% 0 in meteobridge W/m2
21:14 44.2 °F 43.2 °F 30.28 in Calm   3 mph 96% 0 in meteobridge W/m2
21:19 44.2 °F 43.5 °F 30.29 in Calm     97% 0 in meteobridge W/m2
21:24 44.2 °F 43.2 °F 30.29 in Calm   4 mph 96% 0 in meteobridge W/m2
21:29 44.2 °F 43 °F 30.29 in Calm     95% 0 in meteobridge W/m2
21:34 44.2 °F 42.6 °F 30.29 in Calm   1 mph 94% 0 in meteobridge W/m2
21:39 44.1 °F 42.4 °F 30.29 in Calm   2 mph 94% 0 in meteobridge W/m2
21:44 43.7 °F 41.2 °F 30.29 in Calm   3 mph 91% 0 in meteobridge W/m2
21:49 43.3 °F 41.7 °F 30.29 in Calm     94% 0 in meteobridge W/m2
21:54 43.2 °F 41.4 °F 30.29 in Calm     93% 0 in meteobridge W/m2
21:59 43 °F 41.4 °F 30.29 in Calm   1 mph 94% 0 in meteobridge W/m2
22:04 42.8 °F 41.2 °F 30.29 in Calm   1 mph 94% 0 in meteobridge W/m2
22:09 42.6 °F 41 °F 30.30 in Calm   2 mph 94% 0 in meteobridge W/m2
22:14 42.4 °F 40.8 °F 30.30 in Calm   1 mph 94% 0 in meteobridge W/m2
22:19 42.3 °F 41 °F 30.30 in Calm     95% 0 in meteobridge W/m2
22:24 42.3 °F 40.6 °F 30.30 in Calm     94% 0 in meteobridge W/m2
22:29 42.1 °F 40.8 °F 30.30 in Calm     95% 0 in meteobridge W/m2
22:34 41.9 °F 40.3 °F 30.30 in Calm   1 mph 94% 0 in meteobridge W/m2
22:39 41.7 °F 40.1 °F 30.30 in Calm     94% 0 in meteobridge W/m2
22:44 41.4 °F 39.7 °F 30.30 in Calm     94% 0 in meteobridge W/m2
22:49 41.2 °F 39.6 °F 30.30 in Calm     94% 0 in meteobridge W/m2
22:54 41 °F 39.7 °F 30.30 in Calm     95% 0 in meteobridge W/m2
22:59 40.6 °F 39 °F 30.30 in Calm     94% 0 in meteobridge W/m2
23:04 40.5 °F 39.2 °F 30.30 in Calm     95% 0 in meteobridge W/m2
23:09 40.3 °F 39 °F 30.30 in Calm     95% 0 in meteobridge W/m2
23:14 39.7 °F 38.5 °F 30.30 in Calm     95% 0 in meteobridge W/m2
23:19 39.7 °F 38.5 °F 30.30 in Calm   3 mph 95% 0 in meteobridge W/m2
23:24 39.4 °F 38.1 °F 30.31 in Calm   1 mph 95% 0.01 in meteobridge W/m2
23:29 39.4 °F 38.3 °F 30.31 in Calm     96% 0.01 in meteobridge W/m2
23:34 39.2 °F 38.1 °F 30.31 in Calm     96% 0.01 in meteobridge W/m2
23:39 39.2 °F 37.9 °F 30.31 in Calm     95% 0.01 in meteobridge W/m2
23:44 39 °F 37.8 °F 30.31 in Calm     95% 0.01 in meteobridge W/m2
23:49 38.8 °F 37.6 °F 30.31 in NW 0.9 mph 6 mph 95% 0.01 in meteobridge W/m2
23:54 38.8 °F 37.2 °F 30.31 in North 0.9 mph 1 mph 94% 0.01 in meteobridge W/m2
23:59 39 °F 37.2 °F 30.31 in WNW 0.9 mph 4 mph 93% 0.01 in meteobridge W/m2
EllijayWeather
Compliments of Weather Underground - 2.5 mb